createdAt,value
2022-10-21T00:00:24.000Z,1014.29
2022-10-21T00:01:24.056Z,1014.30
2022-10-21T00:02:23.990Z,1014.35
2022-10-21T00:03:24.003Z,1014.31
2022-10-21T00:04:23.929Z,1014.34
2022-10-21T00:05:23.959Z,1014.34
2022-10-21T00:06:23.934Z,1014.32
2022-10-21T00:07:24.053Z,1014.27
2022-10-21T00:08:23.913Z,1014.32
2022-10-21T00:09:23.904Z,1014.32
2022-10-21T00:10:23.970Z,1014.31
2022-10-21T00:11:23.869Z,1014.37
2022-10-21T00:12:23.844Z,1014.36
2022-10-21T00:13:23.882Z,1014.32
2022-10-21T00:14:23.804Z,1014.26
2022-10-21T00:15:23.873Z,1014.27
2022-10-21T00:16:23.783Z,1014.31
2022-10-21T00:17:23.864Z,1014.31
2022-10-21T00:18:23.802Z,1014.30
2022-10-21T00:19:23.812Z,1014.35
2022-10-21T00:21:23.809Z,1014.37
2022-10-21T00:22:23.766Z,1014.24
2022-10-21T00:23:23.775Z,1014.29
2022-10-21T00:24:23.766Z,1014.29
2022-10-21T00:25:23.729Z,1014.29
2022-10-21T00:26:23.753Z,1014.23
2022-10-21T00:27:23.675Z,1014.23
2022-10-21T00:28:23.707Z,1014.14
2022-10-21T00:29:23.650Z,1014.26
2022-10-21T00:30:23.698Z,1014.18
2022-10-21T00:31:23.698Z,1014.19
2022-10-21T00:32:23.625Z,1014.14
2022-10-21T00:33:23.705Z,1014.18
2022-10-21T00:34:28.395Z,1014.19
2022-10-21T00:35:24.673Z,1014.19
2022-10-21T00:36:23.654Z,1014.21
2022-10-21T00:37:23.580Z,1014.13
2022-10-21T00:38:23.588Z,1014.08
2022-10-21T00:39:23.548Z,1014.06
2022-10-21T00:40:23.555Z,1014.03
2022-10-21T00:41:23.591Z,1013.99
2022-10-21T00:42:23.532Z,1013.90
2022-10-21T00:43:23.512Z,1013.86
2022-10-21T00:44:23.493Z,1013.82
2022-10-21T00:45:23.570Z,1013.83
2022-10-21T00:46:23.461Z,1013.81
2022-10-21T00:47:23.455Z,1013.76
2022-10-21T00:48:23.455Z,1013.72
2022-10-21T00:49:23.444Z,1013.70
2022-10-21T00:50:23.447Z,1013.75
2022-10-21T00:51:23.469Z,1013.66
2022-10-21T00:52:23.402Z,1013.68
2022-10-21T00:53:23.404Z,1013.57
2022-10-21T00:54:23.384Z,1013.66
2022-10-21T00:55:23.373Z,1013.69
2022-10-21T00:56:23.384Z,1013.67
2022-10-21T00:57:23.355Z,1013.69
2022-10-21T00:58:23.342Z,1013.68
2022-10-21T00:59:23.334Z,1013.70
2022-10-21T01:00:23.314Z,1013.70
2022-10-21T01:01:23.416Z,1013.62
2022-10-21T01:02:23.331Z,1013.67
2022-10-21T01:03:23.311Z,1013.70
2022-10-21T01:04:23.331Z,1013.66
2022-10-21T01:05:23.310Z,1013.65
2022-10-21T01:06:23.349Z,1013.49
2022-10-21T01:07:23.279Z,1013.46
2022-10-21T01:08:23.253Z,1013.50
2022-10-21T01:09:23.217Z,1013.48
2022-10-21T01:10:23.218Z,1013.49
2022-10-21T01:11:23.228Z,1013.42
2022-10-21T01:12:23.239Z,1013.43
2022-10-21T01:13:23.218Z,1013.49
2022-10-21T01:14:23.168Z,1013.50
2022-10-21T01:15:23.157Z,1013.54
2022-10-21T01:16:23.139Z,1013.54
2022-10-21T01:17:45.177Z,1013.40
2022-10-21T01:18:24.135Z,1013.46
2022-10-21T01:19:23.117Z,1013.47
2022-10-21T01:20:23.124Z,1013.58
2022-10-21T01:21:23.099Z,1013.64
2022-10-21T01:22:23.122Z,1013.60
2022-10-21T01:23:23.071Z,1013.57
2022-10-21T01:24:23.070Z,1013.57
2022-10-21T01:25:23.041Z,1013.51
2022-10-21T01:26:23.042Z,1013.45
2022-10-21T01:27:23.083Z,1013.51
2022-10-21T01:28:23.061Z,1013.51
2022-10-21T01:29:23.008Z,1013.45
2022-10-21T01:30:22.991Z,1013.46
2022-10-21T01:31:22.983Z,1013.44
2022-10-21T01:32:22.965Z,1013.44
2022-10-21T01:33:23.014Z,1013.54
2022-10-21T01:34:22.960Z,1013.60
2022-10-21T01:35:22.942Z,1013.59
2022-10-21T01:36:22.923Z,1013.60
2022-10-21T01:37:22.922Z,1013.50
2022-10-21T01:38:23.233Z,1013.56
2022-10-21T01:39:22.902Z,1013.55
2022-10-21T01:40:22.891Z,1013.48
2022-10-21T01:41:22.895Z,1013.48
2022-10-21T01:42:22.882Z,1013.47
2022-10-21T01:43:22.857Z,1013.48
2022-10-21T01:44:22.872Z,1013.37
2022-10-21T01:45:22.838Z,1013.34
2022-10-21T01:46:22.827Z,1013.30
2022-10-21T01:47:22.832Z,1013.30
2022-10-21T01:48:22.809Z,1013.32
2022-10-21T01:49:22.824Z,1013.35
2022-10-21T01:50:22.776Z,1013.33
2022-10-21T01:51:22.831Z,1013.32
2022-10-21T01:52:22.776Z,1013.23
2022-10-21T01:53:22.745Z,1013.23
2022-10-21T01:54:22.790Z,1013.26
2022-10-21T01:55:22.723Z,1013.20
2022-10-21T01:56:22.745Z,1013.14
2022-10-21T01:57:22.721Z,1013.11
2022-10-21T01:58:22.702Z,1013.08
2022-10-21T01:59:22.693Z,1013.08
2022-10-21T02:00:22.727Z,1013.12
2022-10-21T02:01:22.688Z,1013.16
2022-10-21T02:02:22.660Z,1013.19
2022-10-21T02:03:22.638Z,1013.16
2022-10-21T02:04:22.646Z,1013.07
2022-10-21T02:05:22.633Z,1012.97
2022-10-21T02:06:22.663Z,1013.01
2022-10-21T02:07:22.598Z,1013.03
2022-10-21T02:08:22.588Z,1013.05
2022-10-21T02:09:22.668Z,1013.05
2022-10-21T02:10:22.553Z,1013.02
2022-10-21T02:11:22.574Z,1012.98
2022-10-21T02:12:22.584Z,1013.00
2022-10-21T02:13:22.534Z,1013.01
2022-10-21T02:14:22.512Z,1013.02
2022-10-21T02:15:22.523Z,1013.03
2022-10-21T02:16:22.498Z,1013.04
2022-10-21T02:17:22.491Z,1013.00
2022-10-21T02:18:22.511Z,1013.04
2022-10-21T02:19:22.547Z,1013.01
2022-10-21T02:20:22.452Z,1012.97
2022-10-21T02:21:22.445Z,1012.99
2022-10-21T02:22:22.441Z,1013.06
2022-10-21T02:23:22.437Z,1013.02
2022-10-21T02:24:22.480Z,1013.04
2022-10-21T02:25:22.407Z,1013.00
2022-10-21T02:26:22.421Z,1013.02
2022-10-21T02:27:22.377Z,1013.02
2022-10-21T02:28:22.379Z,1013.05
2022-10-21T02:29:22.355Z,1013.05
2022-10-21T02:30:22.384Z,1013.05
2022-10-21T02:31:22.337Z,1012.97
2022-10-21T02:32:22.318Z,1013.01
2022-10-21T02:33:22.321Z,1012.99
2022-10-21T02:34:22.297Z,1012.99
2022-10-21T02:35:22.295Z,1012.98
2022-10-21T02:36:22.304Z,1012.93
2022-10-21T02:37:22.282Z,1012.97
2022-10-21T02:38:22.257Z,1012.92
2022-10-21T02:39:22.256Z,1012.89
2022-10-21T02:40:22.243Z,1012.90
2022-10-21T02:41:22.229Z,1012.93
2022-10-21T02:42:22.277Z,1012.96
2022-10-21T02:43:22.231Z,1012.97
2022-10-21T02:44:22.193Z,1012.96
2022-10-21T02:45:22.195Z,1013.00
2022-10-21T02:46:22.167Z,1012.90
2022-10-21T02:47:22.258Z,1012.81
2022-10-21T02:48:22.159Z,1012.76
2022-10-21T02:49:22.164Z,1012.72
2022-10-21T02:50:22.139Z,1012.77
2022-10-21T02:51:22.141Z,1012.69
2022-10-21T02:52:22.110Z,1012.70
2022-10-21T02:53:22.310Z,1012.68
2022-10-21T02:54:22.082Z,1012.61
2022-10-21T02:55:22.075Z,1012.61
2022-10-21T02:56:22.140Z,1012.59
2022-10-21T02:57:22.059Z,1012.54
2022-10-21T02:58:22.039Z,1012.55
2022-10-21T02:59:22.079Z,1012.54
2022-10-21T03:00:22.030Z,1012.50
2022-10-21T03:01:22.102Z,1012.53
2022-10-21T03:02:22.007Z,1012.60
2022-10-21T03:03:22.001Z,1012.52
2022-10-21T03:04:21.982Z,1012.56
2022-10-21T03:05:22.049Z,1012.45
2022-10-21T03:06:21.950Z,1012.46
2022-10-21T03:07:21.962Z,1012.48
2022-10-21T03:08:21.949Z,1012.48
2022-10-21T03:09:21.930Z,1012.47
2022-10-21T03:10:21.917Z,1012.55
2022-10-21T03:11:21.931Z,1012.63
2022-10-21T03:12:21.884Z,1012.64
2022-10-21T03:13:21.906Z,1012.62
2022-10-21T03:14:21.933Z,1012.66
2022-10-21T03:15:21.883Z,1012.62
2022-10-21T03:16:21.939Z,1012.58
2022-10-21T03:17:25.099Z,1012.55
2022-10-21T03:18:21.846Z,1012.50
2022-10-21T03:19:21.845Z,1012.44
2022-10-21T03:20:21.803Z,1012.36
2022-10-21T03:21:21.852Z,1012.34
2022-10-21T03:22:21.786Z,1012.41
2022-10-21T03:23:21.802Z,1012.47
2022-10-21T03:24:28.393Z,1012.48
2022-10-21T03:25:22.757Z,1012.43
2022-10-21T03:26:21.743Z,1012.41
2022-10-21T03:27:21.901Z,1012.39
2022-10-21T03:28:21.735Z,1012.42
2022-10-21T03:29:21.735Z,1012.37
2022-10-21T03:30:21.705Z,1012.37
2022-10-21T03:31:21.687Z,1012.33
2022-10-21T03:32:21.666Z,1012.38
2022-10-21T03:33:21.706Z,1012.32
2022-10-21T03:34:21.659Z,1012.36
2022-10-21T03:35:21.654Z,1012.41
2022-10-21T03:36:21.636Z,1012.44
2022-10-21T03:37:21.641Z,1012.49
2022-10-21T03:38:21.637Z,1012.54
2022-10-21T03:39:21.642Z,1012.51
2022-10-21T03:40:21.632Z,1012.52
2022-10-21T03:41:21.599Z,1012.45
2022-10-21T03:42:21.589Z,1012.52
2022-10-21T03:43:21.594Z,1012.53
2022-10-21T03:44:21.553Z,1012.54
2022-10-21T03:45:21.589Z,1012.55
2022-10-21T03:46:21.542Z,1012.54
2022-10-21T03:47:21.520Z,1012.61
2022-10-21T03:48:21.500Z,1012.56
2022-10-21T03:49:21.703Z,1012.56
2022-10-21T03:50:25.402Z,1012.58
2022-10-21T03:51:22.512Z,1012.56
2022-10-21T03:52:21.449Z,1012.51
2022-10-21T03:53:38.240Z,1012.49
2022-10-21T03:54:22.431Z,1012.43
2022-10-21T03:55:21.460Z,1012.41
2022-10-21T03:56:21.440Z,1012.32
2022-10-21T03:57:21.451Z,1012.39
2022-10-21T03:58:21.435Z,1012.40
2022-10-21T03:59:21.385Z,1012.37
2022-10-21T04:00:21.369Z,1012.36
2022-10-21T04:01:21.443Z,1012.37
2022-10-21T04:02:21.354Z,1012.37
2022-10-21T04:03:21.413Z,1012.39
2022-10-21T04:04:21.333Z,1012.42
2022-10-21T04:05:21.315Z,1012.35
2022-10-21T04:06:21.336Z,1012.35
2022-10-21T04:07:21.303Z,1012.37
2022-10-21T04:08:21.301Z,1012.29
2022-10-21T04:09:21.332Z,1012.34
2022-10-21T04:10:21.281Z,1012.27
2022-10-21T04:11:21.288Z,1012.26
2022-10-21T04:12:21.246Z,1012.27
2022-10-21T04:13:21.232Z,1012.26
2022-10-21T04:14:21.225Z,1012.31
2022-10-21T04:15:21.256Z,1012.27
2022-10-21T04:16:21.216Z,1012.20
2022-10-21T04:17:21.197Z,1012.17
2022-10-21T04:18:21.182Z,1012.14
2022-10-21T04:19:21.154Z,1012.21
2022-10-21T04:20:21.165Z,1012.26
2022-10-21T04:21:21.199Z,1012.19
2022-10-21T04:22:21.120Z,1012.13
2022-10-21T04:23:21.126Z,1012.17
2022-10-21T04:24:21.101Z,1012.13
2022-10-21T04:25:21.117Z,1012.15
2022-10-21T04:26:21.082Z,1012.17
2022-10-21T04:27:21.138Z,1012.09
2022-10-21T04:28:21.053Z,1012.13
2022-10-21T04:29:21.054Z,1012.08
2022-10-21T04:30:21.032Z,1012.04
2022-10-21T04:31:21.036Z,1011.97
2022-10-21T04:32:21.046Z,1011.98
2022-10-21T04:33:21.043Z,1011.94
2022-10-21T04:34:20.995Z,1011.92
2022-10-21T04:35:21.004Z,1011.95
2022-10-21T04:36:20.987Z,1011.97
2022-10-21T04:37:20.975Z,1011.99
2022-10-21T04:38:20.980Z,1012.01
2022-10-21T04:39:20.950Z,1011.98
2022-10-21T04:40:20.940Z,1011.98
2022-10-21T04:41:20.919Z,1012.13
2022-10-21T04:42:20.960Z,1012.10
2022-10-21T04:43:20.904Z,1012.07
2022-10-21T04:44:20.945Z,1012.11
2022-10-21T04:45:20.891Z,1012.00
2022-10-21T04:46:20.882Z,1011.97
2022-10-21T04:47:20.875Z,1011.93
2022-10-21T04:48:20.855Z,1011.92
2022-10-21T04:49:20.846Z,1011.89
2022-10-21T04:50:20.862Z,1011.91
2022-10-21T04:51:20.850Z,1011.85
2022-10-21T04:52:21.179Z,1011.88
2022-10-21T04:53:20.794Z,1011.88
2022-10-21T04:54:20.795Z,1011.85
2022-10-21T04:55:20.763Z,1011.76
2022-10-21T04:56:20.784Z,1011.68
2022-10-21T04:57:20.764Z,1011.72
2022-10-21T04:58:21.948Z,1011.73
2022-10-21T04:59:20.733Z,1011.68
2022-10-21T05:00:20.725Z,1011.68
2022-10-21T05:01:20.778Z,1011.66
2022-10-21T05:02:23.072Z,1011.61
2022-10-21T05:03:20.660Z,1011.63
2022-10-21T05:04:20.676Z,1011.59
2022-10-21T05:05:20.643Z,1011.55
2022-10-21T05:06:20.654Z,1011.57
2022-10-21T05:07:20.669Z,1011.58
2022-10-21T05:08:20.637Z,1011.61
2022-10-21T05:09:20.604Z,1011.64
2022-10-21T05:10:20.628Z,1011.55
2022-10-21T05:11:20.606Z,1011.56
2022-10-21T05:12:20.586Z,1011.49
2022-10-21T05:13:20.601Z,1011.38
2022-10-21T05:14:22.696Z,1011.42
2022-10-21T05:15:20.556Z,1011.37
2022-10-21T05:16:20.560Z,1011.38
2022-10-21T05:17:20.540Z,1011.39
2022-10-21T05:18:20.520Z,1011.32
2022-10-21T05:19:20.558Z,1011.32
2022-10-21T05:20:20.517Z,1011.34
2022-10-21T05:21:20.501Z,1011.33
2022-10-21T05:22:20.480Z,1011.28
2022-10-21T05:23:20.470Z,1011.25
2022-10-21T05:24:20.461Z,1011.23
2022-10-21T05:25:20.492Z,1011.25
2022-10-21T05:26:20.453Z,1011.28
2022-10-21T05:27:20.451Z,1011.24
2022-10-21T05:28:20.423Z,1011.20
2022-10-21T05:29:20.407Z,1011.09
2022-10-21T05:30:20.536Z,1011.11
2022-10-21T05:31:20.378Z,1011.10
2022-10-21T05:32:20.375Z,1011.18
2022-10-21T05:33:20.371Z,1011.13
2022-10-21T05:34:20.365Z,1011.15
2022-10-21T05:35:20.372Z,1011.16
2022-10-21T05:36:23.245Z,1011.11
2022-10-21T05:37:20.325Z,1011.11
2022-10-21T05:38:20.325Z,1011.09
2022-10-21T05:39:20.310Z,1011.15
2022-10-21T05:40:20.291Z,1011.16
2022-10-21T05:41:20.290Z,1011.23
2022-10-21T05:42:20.330Z,1011.16
2022-10-21T05:43:20.265Z,1011.13
2022-10-21T05:44:20.239Z,1011.10
2022-10-21T05:45:20.257Z,1011.08
2022-10-21T05:46:20.259Z,1011.04
2022-10-21T05:47:20.260Z,1011.01
2022-10-21T05:48:20.215Z,1010.98
2022-10-21T05:49:20.206Z,1010.96
2022-10-21T05:50:20.196Z,1011.01
2022-10-21T05:51:20.176Z,1010.94
2022-10-21T05:52:20.163Z,1010.99
2022-10-21T05:53:20.196Z,1011.00
2022-10-21T05:54:20.152Z,1011.07
2022-10-21T05:55:20.137Z,1011.13
2022-10-21T05:56:20.150Z,1011.22
2022-10-21T05:57:20.100Z,1011.23
2022-10-21T05:58:20.096Z,1011.25
2022-10-21T05:59:20.127Z,1011.26
2022-10-21T06:00:20.068Z,1011.25
2022-10-21T06:01:20.160Z,1011.26
2022-10-21T06:02:20.071Z,1011.24
2022-10-21T06:03:20.053Z,1011.26
2022-10-21T06:04:20.065Z,1011.21
2022-10-21T06:05:20.059Z,1011.17
2022-10-21T06:06:20.038Z,1011.19
2022-10-21T06:07:20.002Z,1011.22
2022-10-21T06:08:19.979Z,1011.22
2022-10-21T06:09:19.977Z,1011.28
2022-10-21T06:10:19.958Z,1011.30
2022-10-21T06:11:20.047Z,1011.34
2022-10-21T06:12:19.975Z,1011.37
2022-10-21T06:13:19.921Z,1011.36
2022-10-21T06:14:19.908Z,1011.32
2022-10-21T06:15:19.908Z,1011.24
2022-10-21T06:16:19.912Z,1011.19
2022-10-21T06:17:19.930Z,1011.15
2022-10-21T06:18:19.883Z,1011.15
2022-10-21T06:19:19.871Z,1011.10
2022-10-21T06:20:19.890Z,1011.04
2022-10-21T06:21:19.853Z,1011.05
2022-10-21T06:22:19.830Z,1011.04
2022-10-21T06:23:19.882Z,1011.07
2022-10-21T06:24:19.841Z,1011.09
2022-10-21T06:25:19.804Z,1011.11
2022-10-21T06:26:19.790Z,1011.08
2022-10-21T06:27:19.783Z,1011.10
2022-10-21T06:28:19.765Z,1011.11
2022-10-21T06:29:19.809Z,1011.13
2022-10-21T06:30:19.743Z,1011.10
2022-10-21T06:31:19.745Z,1011.05
2022-10-21T06:32:19.717Z,1010.99
2022-10-21T06:33:24.586Z,1010.99
2022-10-21T06:34:20.732Z,1011.02
2022-10-21T06:35:19.696Z,1011.09
2022-10-21T06:36:19.675Z,1011.16
2022-10-21T06:37:19.652Z,1011.21
2022-10-21T06:38:19.647Z,1011.18
2022-10-21T06:39:19.649Z,1011.24
2022-10-21T06:40:19.664Z,1011.15
2022-10-21T06:41:19.639Z,1011.19
2022-10-21T06:42:19.610Z,1011.16
2022-10-21T06:43:19.682Z,1011.22
2022-10-21T06:44:19.580Z,1011.26
2022-10-21T06:45:19.582Z,1011.25
2022-10-21T06:46:19.616Z,1011.26
2022-10-21T06:47:19.574Z,1011.22
2022-10-21T06:48:19.540Z,1011.24
2022-10-21T06:49:19.526Z,1011.24
2022-10-21T06:50:19.523Z,1011.26
2022-10-21T06:51:19.562Z,1011.23
2022-10-21T06:52:19.597Z,1011.19
2022-10-21T06:53:19.524Z,1011.26
2022-10-21T06:54:19.499Z,1011.29
2022-10-21T06:55:19.468Z,1011.34
2022-10-21T06:56:19.475Z,1011.35
2022-10-21T06:57:19.478Z,1011.38
2022-10-21T06:58:19.441Z,1011.42
2022-10-21T06:59:19.431Z,1011.40
2022-10-21T07:00:19.469Z,1011.44
2022-10-21T07:01:33.864Z,1011.48
2022-10-21T07:02:20.410Z,1011.42
2022-10-21T07:03:19.388Z,1011.48
2022-10-21T07:04:19.377Z,1011.45
2022-10-21T07:05:19.370Z,1011.43
2022-10-21T07:06:19.415Z,1011.38
2022-10-21T07:07:19.380Z,1011.37
2022-10-21T07:08:22.413Z,1011.36
2022-10-21T07:09:20.378Z,1011.39
2022-10-21T07:10:19.334Z,1011.38
2022-10-21T07:11:19.310Z,1011.37
2022-10-21T07:12:19.280Z,1011.37
2022-10-21T07:13:23.487Z,1011.30
2022-10-21T07:14:20.312Z,1011.38
2022-10-21T07:15:19.261Z,1011.38
2022-10-21T07:16:19.245Z,1011.42
2022-10-21T07:17:19.283Z,1011.36
2022-10-21T07:18:19.226Z,1011.42
2022-10-21T07:19:19.216Z,1011.43
2022-10-21T07:20:19.203Z,1011.44
2022-10-21T07:21:19.194Z,1011.44
2022-10-21T07:22:19.232Z,1011.47
2022-10-21T07:23:19.172Z,1011.48
2022-10-21T07:24:22.560Z,1011.51
2022-10-21T07:25:19.166Z,1011.49
2022-10-21T07:26:19.135Z,1011.53
2022-10-21T07:27:19.173Z,1011.47
2022-10-21T07:28:19.114Z,1011.55
2022-10-21T07:29:19.128Z,1011.47
2022-10-21T07:30:19.097Z,1011.52
2022-10-21T07:31:19.086Z,1011.46
2022-10-21T07:32:19.097Z,1011.52
2022-10-21T07:33:19.125Z,1011.53
2022-10-21T07:34:19.052Z,1011.57
2022-10-21T07:35:19.036Z,1011.53
2022-10-21T07:36:19.035Z,1011.49
2022-10-21T07:37:19.022Z,1011.46
2022-10-21T07:38:20.976Z,1011.42
2022-10-21T07:39:18.995Z,1011.44
2022-10-21T07:40:18.998Z,1011.44
2022-10-21T07:41:18.982Z,1011.41
2022-10-21T07:42:18.983Z,1011.43
2022-10-21T07:43:18.953Z,1011.34
2022-10-21T07:44:18.984Z,1011.40
2022-10-21T07:45:18.931Z,1011.37
2022-10-21T07:46:18.925Z,1011.39
2022-10-21T07:47:18.909Z,1011.38
2022-10-21T07:48:18.939Z,1011.38
2022-10-21T07:49:18.894Z,1011.37
2022-10-21T07:50:18.923Z,1011.35
2022-10-21T07:51:18.858Z,1011.39
2022-10-21T07:52:18.869Z,1011.35
2022-10-21T07:53:19.389Z,1011.35
2022-10-21T07:54:18.829Z,1011.39
2022-10-21T07:55:18.811Z,1011.37
2022-10-21T07:56:18.839Z,1011.41
2022-10-21T07:57:18.800Z,1011.35
2022-10-21T07:58:18.792Z,1011.38
2022-10-21T07:59:18.782Z,1011.33
2022-10-21T08:00:18.780Z,1011.28
2022-10-21T08:01:18.806Z,1011.40
2022-10-21T08:02:18.793Z,1011.31
2022-10-21T08:03:18.763Z,1011.39
2022-10-21T08:04:18.729Z,1011.33
2022-10-21T08:05:18.730Z,1011.28
2022-10-21T08:06:18.716Z,1011.19
2022-10-21T08:07:18.690Z,1011.27
2022-10-21T08:08:18.690Z,1011.27
2022-10-21T08:09:18.785Z,1011.18
2022-10-21T08:10:18.650Z,1011.25
2022-10-21T08:11:18.655Z,1011.16
2022-10-21T08:12:18.644Z,1011.19
2022-10-21T08:13:18.624Z,1011.15
2022-10-21T08:14:18.648Z,1011.28
2022-10-21T08:15:18.604Z,1011.19
2022-10-21T08:16:18.608Z,1011.21
2022-10-21T08:17:18.595Z,1011.19
2022-10-21T08:18:18.575Z,1011.18
2022-10-21T08:19:18.556Z,1011.06
2022-10-21T08:20:18.597Z,1011.09
2022-10-21T08:21:18.552Z,1011.10
2022-10-21T08:22:18.529Z,1011.07
2022-10-21T08:23:18.522Z,1011.08
2022-10-21T08:24:18.645Z,1011.08
2022-10-21T08:25:18.499Z,1011.10
2022-10-21T08:26:18.496Z,1011.15
2022-10-21T08:27:18.477Z,1011.10
2022-10-21T08:28:18.497Z,1011.10
2022-10-21T08:29:18.460Z,1011.04
2022-10-21T08:30:18.482Z,1011.08
2022-10-21T08:31:18.431Z,1011.04
2022-10-21T08:32:18.425Z,1010.98
2022-10-21T08:33:18.417Z,1010.97
2022-10-21T08:34:18.421Z,1010.94
2022-10-21T08:35:18.395Z,1010.99
2022-10-21T08:36:18.411Z,1010.95
2022-10-21T08:37:21.002Z,1010.96
2022-10-21T08:38:19.360Z,1010.91
2022-10-21T08:39:18.361Z,1010.95
2022-10-21T08:40:18.360Z,1010.92
2022-10-21T08:41:18.588Z,1010.80
2022-10-21T08:42:18.371Z,1010.83
2022-10-21T08:43:18.313Z,1010.75
2022-10-21T08:44:18.304Z,1010.76
2022-10-21T08:45:18.283Z,1010.80
2022-10-21T08:46:18.270Z,1010.81
2022-10-21T08:47:18.251Z,1010.79
2022-10-21T08:48:18.279Z,1010.70
2022-10-21T08:49:19.482Z,1010.74
2022-10-21T08:50:18.223Z,1010.78
2022-10-21T08:51:18.233Z,1010.74
2022-10-21T08:52:18.201Z,1010.76
2022-10-21T08:53:18.210Z,1010.73
2022-10-21T08:54:18.187Z,1010.69
2022-10-21T08:55:18.167Z,1010.74
2022-10-21T08:56:19.992Z,1010.72
2022-10-21T08:57:18.147Z,1010.70
2022-10-21T08:58:18.146Z,1010.64
2022-10-21T08:59:18.132Z,1010.68
2022-10-21T09:00:18.160Z,1010.62
2022-10-21T09:01:18.145Z,1010.64
2022-10-21T09:02:18.105Z,1010.64
2022-10-21T09:03:18.166Z,1010.65
2022-10-21T09:04:18.073Z,1010.61
2022-10-21T09:05:18.080Z,1010.66
2022-10-21T09:06:18.067Z,1010.69
2022-10-21T09:07:18.066Z,1010.67
2022-10-21T09:08:18.026Z,1010.66
2022-10-21T09:09:18.047Z,1010.70
2022-10-21T09:10:18.050Z,1010.67
2022-10-21T09:11:18.017Z,1010.71
2022-10-21T09:12:18.006Z,1010.71
2022-10-21T09:13:17.979Z,1010.59
2022-10-21T09:14:17.989Z,1010.59
2022-10-21T09:15:17.959Z,1010.63
2022-10-21T09:16:17.950Z,1010.63
2022-10-21T09:17:17.967Z,1010.63
2022-10-21T09:18:17.917Z,1010.52
2022-10-21T09:19:17.922Z,1010.59
2022-10-21T09:20:17.896Z,1010.59
2022-10-21T09:21:17.902Z,1010.63
2022-10-21T09:22:34.175Z,1010.58
2022-10-21T09:23:18.860Z,1010.59
2022-10-21T09:24:17.851Z,1010.58
2022-10-21T09:25:17.837Z,1010.63
2022-10-21T09:26:17.869Z,1010.63
2022-10-21T09:27:22.759Z,1010.50
2022-10-21T09:28:18.809Z,1010.55
2022-10-21T09:29:17.803Z,1010.49
2022-10-21T09:30:17.788Z,1010.50
2022-10-21T09:31:17.775Z,1010.47
2022-10-21T09:32:17.836Z,1010.43
2022-10-21T09:33:17.759Z,1010.45
2022-10-21T09:34:17.750Z,1010.40
2022-10-21T09:35:17.742Z,1010.41
2022-10-21T09:36:17.735Z,1010.48
2022-10-21T09:37:17.753Z,1010.46
2022-10-21T09:38:17.705Z,1010.40
2022-10-21T09:39:17.686Z,1010.47
2022-10-21T09:40:17.683Z,1010.43
2022-10-21T09:41:17.744Z,1010.41
2022-10-21T09:42:42.266Z,1010.48
2022-10-21T09:43:18.689Z,1010.49
2022-10-21T09:44:17.642Z,1010.47
2022-10-21T09:45:17.623Z,1010.48
2022-10-21T09:46:17.614Z,1010.40
2022-10-21T09:47:17.652Z,1010.41
2022-10-21T09:48:17.584Z,1010.44
2022-10-21T09:49:47.890Z,1010.47
2022-10-21T09:50:18.616Z,1010.45
2022-10-21T09:51:17.564Z,1010.52
2022-10-21T09:52:17.546Z,1010.51
2022-10-21T09:53:20.394Z,1010.48
2022-10-21T09:54:18.523Z,1010.56
2022-10-21T09:55:17.524Z,1010.52
2022-10-21T09:56:17.508Z,1010.51
2022-10-21T09:57:17.503Z,1010.57
2022-10-21T09:58:17.487Z,1010.50
2022-10-21T09:59:17.518Z,1010.51
2022-10-21T10:00:17.477Z,1010.57
2022-10-21T10:01:17.470Z,1010.55
2022-10-21T10:02:17.459Z,1010.54
2022-10-21T10:03:17.445Z,1010.57
2022-10-21T10:04:17.410Z,1010.57
2022-10-21T10:05:17.427Z,1010.62
2022-10-21T10:06:17.396Z,1010.63
2022-10-21T10:07:17.388Z,1010.56
2022-10-21T10:08:17.437Z,1010.54
2022-10-21T10:09:17.397Z,1010.57
2022-10-21T10:10:17.360Z,1010.61
2022-10-21T10:11:17.386Z,1010.60
2022-10-21T10:12:17.341Z,1010.60
2022-10-21T10:13:17.331Z,1010.53
2022-10-21T10:14:17.308Z,1010.58
2022-10-21T10:15:17.308Z,1010.54
2022-10-21T10:16:17.289Z,1010.56
2022-10-21T10:17:17.318Z,1010.52
2022-10-21T10:18:17.279Z,1010.54
2022-10-21T10:19:17.286Z,1010.59
2022-10-21T10:20:17.254Z,1010.54
2022-10-21T10:21:17.239Z,1010.49
2022-10-21T10:22:17.243Z,1010.54
2022-10-21T10:23:17.240Z,1010.53
2022-10-21T10:24:17.205Z,1010.51
2022-10-21T10:25:17.204Z,1010.52
2022-10-21T10:26:17.171Z,1010.49
2022-10-21T10:27:17.202Z,1010.44
2022-10-21T10:28:17.153Z,1010.41
2022-10-21T10:29:17.165Z,1010.45
2022-10-21T10:30:17.134Z,1010.38
2022-10-21T10:31:17.133Z,1010.37
2022-10-21T10:32:17.122Z,1010.35
2022-10-21T10:33:17.152Z,1010.34
2022-10-21T10:34:17.094Z,1010.28
2022-10-21T10:35:17.097Z,1010.20
2022-10-21T10:36:17.077Z,1010.23
2022-10-21T10:37:17.052Z,1010.19
2022-10-21T10:38:17.062Z,1010.23
2022-10-21T10:39:17.074Z,1010.17
2022-10-21T10:40:17.030Z,1010.14
2022-10-21T10:41:17.024Z,1010.18
2022-10-21T10:42:17.009Z,1010.14
2022-10-21T10:43:16.994Z,1010.12
2022-10-21T10:44:16.987Z,1010.10
2022-10-21T10:45:17.030Z,1010.11
2022-10-21T10:46:16.966Z,1010.07
2022-10-21T10:47:16.967Z,1010.12
2022-10-21T10:48:16.956Z,1010.07
2022-10-21T10:49:16.926Z,1010.05
2022-10-21T10:50:16.906Z,1009.95
2022-10-21T10:51:16.937Z,1009.96
2022-10-21T10:52:16.915Z,1010.01
2022-10-21T10:53:16.913Z,1009.97
2022-10-21T10:54:16.880Z,1009.90
2022-10-21T10:55:16.875Z,1009.89
2022-10-21T10:56:16.849Z,1009.84
2022-10-21T10:57:16.864Z,1009.80
2022-10-21T10:58:19.103Z,1009.89
2022-10-21T10:59:16.812Z,1009.75
2022-10-21T11:00:16.829Z,1009.76
2022-10-21T11:01:16.830Z,1009.78
2022-10-21T11:02:16.779Z,1009.74
2022-10-21T11:03:16.790Z,1009.72
2022-10-21T11:04:16.775Z,1009.75
2022-10-21T11:05:16.751Z,1009.68
2022-10-21T11:06:16.770Z,1009.67
2022-10-21T11:07:16.734Z,1009.72
2022-10-21T11:08:16.721Z,1009.71
2022-10-21T11:09:16.840Z,1009.71
2022-10-21T11:10:16.698Z,1009.77
2022-10-21T11:11:16.715Z,1009.74
2022-10-21T11:12:16.680Z,1009.73
2022-10-21T11:13:16.662Z,1009.73
2022-10-21T11:14:19.099Z,1009.68
2022-10-21T11:15:17.653Z,1009.66
2022-10-21T11:16:16.631Z,1009.63
2022-10-21T11:17:16.651Z,1009.69
2022-10-21T11:18:24.765Z,1009.67
2022-10-21T11:19:17.924Z,1009.71
2022-10-21T11:20:16.584Z,1009.72
2022-10-21T11:21:16.604Z,1009.68
2022-10-21T11:22:16.589Z,1009.68
2022-10-21T11:23:16.575Z,1009.65
2022-10-21T11:24:16.568Z,1009.64
2022-10-21T11:25:16.536Z,1009.62
2022-10-21T11:26:16.562Z,1009.67
2022-10-21T11:27:19.065Z,1009.69
2022-10-21T11:28:16.546Z,1009.68
2022-10-21T11:29:16.499Z,1009.72
2022-10-21T11:30:16.494Z,1009.65
2022-10-21T11:31:16.497Z,1009.59
2022-10-21T11:32:16.493Z,1009.62
2022-10-21T11:33:16.467Z,1009.56
2022-10-21T11:34:16.431Z,1009.57
2022-10-21T11:35:16.438Z,1009.50
2022-10-21T11:36:16.430Z,1009.58
2022-10-21T11:37:16.425Z,1009.57
2022-10-21T11:38:16.419Z,1009.55
2022-10-21T11:39:21.236Z,1009.57
2022-10-21T11:40:17.387Z,1009.56
2022-10-21T11:42:16.375Z,1009.50
2022-10-21T11:43:16.338Z,1009.56
2022-10-21T11:44:16.329Z,1009.59
2022-10-21T11:45:16.318Z,1009.57
2022-10-21T11:46:16.317Z,1009.60
2022-10-21T11:47:16.319Z,1009.57
2022-10-21T11:48:16.279Z,1009.55
2022-10-21T11:49:16.273Z,1009.52
2022-10-21T11:50:16.311Z,1009.48
2022-10-21T11:51:16.653Z,1009.39
2022-10-21T11:52:16.292Z,1009.46
2022-10-21T11:53:16.222Z,1009.41
2022-10-21T11:54:16.243Z,1009.43
2022-10-21T11:55:16.210Z,1009.47
2022-10-21T11:56:16.212Z,1009.37
2022-10-21T11:57:16.183Z,1009.36
2022-10-21T11:58:16.202Z,1009.37
2022-10-21T11:59:16.193Z,1009.45
2022-10-21T12:00:16.162Z,1009.43
2022-10-21T12:01:16.135Z,1009.45
2022-10-21T12:02:16.244Z,1009.57
2022-10-21T12:03:16.155Z,1009.57
2022-10-21T12:04:16.097Z,1009.52
2022-10-21T12:05:16.107Z,1009.61
2022-10-21T12:06:16.094Z,1009.67
2022-10-21T12:07:16.086Z,1009.68